Terminal Aerodrome Forecast
Issued by NWS Northern Indiana

Home | Current Version | Previous Version | Text Only | Print | Product List | Glossary On
Versions: 1 2 3 4 5 6 7 8 9 10 11 12 13 14 15 16
000
FTUS43 KIWX 010500
TAFFWA
TAF
KFWA 010539Z 0106/0206 24007KT 1 1/2SM -SN OVC006
      TEMPO 0106/0110 3/4SM -SN OVC004
     FM011000 09008KT 1SM -SN OVC005
     FM011400 08012KT 1/2SM SN FZFG VV004
     FM011800 08013G23KT 1/2SM SN FZFG VV004
     FM012100 08015G25KT 1/4SM SN FZFG BLSN VV003
     FM020000 06017G31KT 1/4SM SN FZFG BLSN VV003=

USA.gov is the U.S. government's official web portal to all federal, state and local government web resources and services.